sensor_id;sensor_type;location;lat;lon;timestamp;P1;durP1;ratioP1;P2;durP2;ratioP2
81229;SDS011;70701;44.452;18.652;2023-11-21T00:00:00;105.83;;;65.30;;
81229;SDS011;70701;44.452;18.652;2023-11-21T00:02:26;95.27;;;63.67;;
81229;SDS011;70701;44.452;18.652;2023-11-21T00:04:52;83.40;;;55.70;;
81229;SDS011;70701;44.452;18.652;2023-11-21T00:07:18;86.50;;;56.83;;
81229;SDS011;70701;44.452;18.652;2023-11-21T00:09:43;84.17;;;54.87;;
81229;SDS011;70701;44.452;18.652;2023-11-21T00:12:09;108.83;;;65.70;;
81229;SDS011;70701;44.452;18.652;2023-11-21T00:17:45;117.27;;;72.53;;
81229;SDS011;70701;44.452;18.652;2023-11-21T00:20:11;116.07;;;69.33;;
81229;SDS011;70701;44.452;18.652;2023-11-21T00:22:38;117.13;;;76.43;;
81229;SDS011;70701;44.452;18.652;2023-11-21T00:25:06;129.60;;;79.03;;
81229;SDS011;70701;44.452;18.652;2023-11-21T00:27:34;200.27;;;113.23;;
81229;SDS011;70701;44.452;18.652;2023-11-21T00:30:00;283.27;;;158.67;;
81229;SDS011;70701;44.452;18.652;2023-11-21T00:32:26;313.83;;;176.53;;
81229;SDS011;70701;44.452;18.652;2023-11-21T00:34:52;343.17;;;189.43;;
81229;SDS011;70701;44.452;18.652;2023-11-21T00:37:20;303.50;;;163.37;;
81229;SDS011;70701;44.452;18.652;2023-11-21T00:39:46;290.73;;;162.30;;
81229;SDS011;70701;44.452;18.652;2023-11-21T00:42:12;287.23;;;152.80;;
81229;SDS011;70701;44.452;18.652;2023-11-21T00:44:38;289.60;;;160.63;;
81229;SDS011;70701;44.452;18.652;2023-11-21T00:47:04;294.43;;;167.60;;
81229;SDS011;70701;44.452;18.652;2023-11-21T00:49:30;343.77;;;179.33;;
81229;SDS011;70701;44.452;18.652;2023-11-21T00:51:56;318.10;;;175.30;;
81229;SDS011;70701;44.452;18.652;2023-11-21T00:54:25;317.93;;;173.20;;
81229;SDS011;70701;44.452;18.652;2023-11-21T00:56:52;307.70;;;172.83;;
81229;SDS011;70701;44.452;18.652;2023-11-21T00:59:18;358.20;;;197.63;;
81229;SDS011;70701;44.452;18.652;2023-11-21T01:01:43;388.23;;;216.80;;
81229;SDS011;70701;44.452;18.652;2023-11-21T01:04:09;425.80;;;244.57;;
81229;SDS011;70701;44.452;18.652;2023-11-21T01:06:35;434.03;;;253.23;;
81229;SDS011;70701;44.452;18.652;2023-11-21T01:09:01;434.43;;;260.60;;
81229;SDS011;70701;44.452;18.652;2023-11-21T01:11:29;433.00;;;258.93;;
81229;SDS011;70701;44.452;18.652;2023-11-21T01:13:55;424.37;;;236.20;;
81229;SDS011;70701;44.452;18.652;2023-11-21T01:16:20;401.40;;;228.60;;
81229;SDS011;70701;44.452;18.652;2023-11-21T01:18:46;376.83;;;214.73;;
81229;SDS011;70701;44.452;18.652;2023-11-21T01:21:11;414.57;;;240.03;;
81229;SDS011;70701;44.452;18.652;2023-11-21T01:23:37;385.63;;;206.23;;
81229;SDS011;70701;44.452;18.652;2023-11-21T01:26:03;349.70;;;185.27;;
81229;SDS011;70701;44.452;18.652;2023-11-21T01:28:28;435.80;;;213.60;;
81229;SDS011;70701;44.452;18.652;2023-11-21T01:30:54;330.90;;;172.60;;
81229;SDS011;70701;44.452;18.652;2023-11-21T01:33:21;220.87;;;128.03;;
81229;SDS011;70701;44.452;18.652;2023-11-21T01:35:51;171.93;;;107.37;;
81229;SDS011;70701;44.452;18.652;2023-11-21T01:38:20;148.70;;;94.80;;
81229;SDS011;70701;44.452;18.652;2023-11-21T01:40:47;167.43;;;106.20;;
81229;SDS011;70701;44.452;18.652;2023-11-21T01:43:13;193.00;;;114.07;;
81229;SDS011;70701;44.452;18.652;2023-11-21T01:45:38;156.27;;;96.03;;
81229;SDS011;70701;44.452;18.652;2023-11-21T01:48:04;130.40;;;78.37;;
81229;SDS011;70701;44.452;18.652;2023-11-21T01:50:32;126.57;;;78.83;;
81229;SDS011;70701;44.452;18.652;2023-11-21T01:52:58;120.63;;;72.40;;
81229;SDS011;70701;44.452;18.652;2023-11-21T01:55:25;130.53;;;77.93;;
81229;SDS011;70701;44.452;18.652;2023-11-21T01:57:52;123.53;;;74.53;;
81229;SDS011;70701;44.452;18.652;2023-11-21T02:00:19;117.47;;;70.27;;
81229;SDS011;70701;44.452;18.652;2023-11-21T02:02:45;131.13;;;77.30;;
81229;SDS011;70701;44.452;18.652;2023-11-21T02:05:16;131.17;;;79.67;;
81229;SDS011;70701;44.452;18.652;2023-11-21T02:10:14;148.43;;;87.67;;
81229;SDS011;70701;44.452;18.652;2023-11-21T02:12:41;137.30;;;90.00;;
81229;SDS011;70701;44.452;18.652;2023-11-21T02:15:08;178.90;;;110.97;;
81229;SDS011;70701;44.452;18.652;2023-11-21T02:17:43;197.67;;;124.60;;
81229;SDS011;70701;44.452;18.652;2023-11-21T02:20:12;218.70;;;130.50;;
81229;SDS011;70701;44.452;18.652;2023-11-21T02:22:42;147.63;;;93.77;;
81229;SDS011;70701;44.452;18.652;2023-11-21T02:25:09;148.90;;;90.67;;
81229;SDS011;70701;44.452;18.652;2023-11-21T02:27:35;161.57;;;96.20;;
81229;SDS011;70701;44.452;18.652;2023-11-21T02:30:01;166.53;;;97.50;;
81229;SDS011;70701;44.452;18.652;2023-11-21T02:32:29;164.30;;;101.87;;
81229;SDS011;70701;44.452;18.652;2023-11-21T02:34:57;150.97;;;90.93;;
81229;SDS011;70701;44.452;18.652;2023-11-21T02:37:26;128.50;;;78.70;;
81229;SDS011;70701;44.452;18.652;2023-11-21T02:39:52;165.87;;;90.87;;
81229;SDS011;70701;44.452;18.652;2023-11-21T02:42:18;155.40;;;96.23;;
81229;SDS011;70701;44.452;18.652;2023-11-21T02:44:43;150.33;;;90.47;;
81229;SDS011;70701;44.452;18.652;2023-11-21T02:47:09;159.23;;;93.60;;
81229;SDS011;70701;44.452;18.652;2023-11-21T02:49:35;135.53;;;81.10;;
81229;SDS011;70701;44.452;18.652;2023-11-21T02:52:01;126.60;;;81.13;;
81229;SDS011;70701;44.452;18.652;2023-11-21T02:54:27;128.10;;;80.27;;
81229;SDS011;70701;44.452;18.652;2023-11-21T02:56:57;132.87;;;82.37;;
81229;SDS011;70701;44.452;18.652;2023-11-21T02:59:23;152.47;;;88.67;;
81229;SDS011;70701;44.452;18.652;2023-11-21T03:01:50;172.40;;;100.03;;
81229;SDS011;70701;44.452;18.652;2023-11-21T03:04:15;203.57;;;117.70;;
81229;SDS011;70701;44.452;18.652;2023-11-21T03:06:43;148.10;;;93.60;;
81229;SDS011;70701;44.452;18.652;2023-11-21T03:09:10;157.07;;;92.70;;
81229;SDS011;70701;44.452;18.652;2023-11-21T03:11:37;148.47;;;90.27;;
81229;SDS011;70701;44.452;18.652;2023-11-21T03:14:03;153.03;;;87.73;;
81229;SDS011;70701;44.452;18.652;2023-11-21T03:16:28;151.03;;;88.83;;
81229;SDS011;70701;44.452;18.652;2023-11-21T03:18:54;142.17;;;86.07;;
81229;SDS011;70701;44.452;18.652;2023-11-21T03:21:20;123.07;;;77.63;;
81229;SDS011;70701;44.452;18.652;2023-11-21T03:23:45;133.93;;;80.00;;
81229;SDS011;70701;44.452;18.652;2023-11-21T03:26:12;127.40;;;79.23;;
81229;SDS011;70701;44.452;18.652;2023-11-21T03:28:38;132.67;;;80.03;;
81229;SDS011;70701;44.452;18.652;2023-11-21T03:31:04;134.90;;;83.47;;
81229;SDS011;70701;44.452;18.652;2023-11-21T03:33:31;136.73;;;80.03;;
81229;SDS011;70701;44.452;18.652;2023-11-21T03:35:57;115.53;;;74.07;;
81229;SDS011;70701;44.452;18.652;2023-11-21T03:38:24;109.47;;;69.93;;
81229;SDS011;70701;44.452;18.652;2023-11-21T03:40:49;111.63;;;70.13;;
81229;SDS011;70701;44.452;18.652;2023-11-21T03:43:15;123.13;;;76.67;;
81229;SDS011;70701;44.452;18.652;2023-11-21T03:45:41;94.03;;;60.30;;
81229;SDS011;70701;44.452;18.652;2023-11-21T03:48:07;95.73;;;65.20;;
81229;SDS011;70701;44.452;18.652;2023-11-21T03:50:36;93.07;;;57.83;;
81229;SDS011;70701;44.452;18.652;2023-11-21T03:53:02;82.43;;;55.80;;
81229;SDS011;70701;44.452;18.652;2023-11-21T03:55:29;86.97;;;57.40;;
81229;SDS011;70701;44.452;18.652;2023-11-21T03:57:56;89.00;;;59.77;;
81229;SDS011;70701;44.452;18.652;2023-11-21T04:00:22;88.17;;;58.33;;
81229;SDS011;70701;44.452;18.652;2023-11-21T04:02:48;90.07;;;60.47;;
81229;SDS011;70701;44.452;18.652;2023-11-21T04:05:16;87.23;;;57.47;;
81229;SDS011;70701;44.452;18.652;2023-11-21T04:07:41;95.40;;;63.40;;
81229;SDS011;70701;44.452;18.652;2023-11-21T04:10:07;88.93;;;58.53;;
81229;SDS011;70701;44.452;18.652;2023-11-21T04:12:34;89.23;;;58.00;;
81229;SDS011;70701;44.452;18.652;2023-11-21T04:15:00;87.73;;;57.77;;
81229;SDS011;70701;44.452;18.652;2023-11-21T04:17:26;89.87;;;59.43;;
81229;SDS011;70701;44.452;18.652;2023-11-21T04:19:52;98.07;;;63.13;;
81229;SDS011;70701;44.452;18.652;2023-11-21T04:22:17;88.60;;;59.07;;
81229;SDS011;70701;44.452;18.652;2023-11-21T04:24:43;97.07;;;61.37;;
81229;SDS011;70701;44.452;18.652;2023-11-21T04:27:08;104.23;;;62.63;;
81229;SDS011;70701;44.452;18.652;2023-11-21T04:29:34;101.87;;;67.40;;
81229;SDS011;70701;44.452;18.652;2023-11-21T04:32:00;109.60;;;71.10;;
81229;SDS011;70701;44.452;18.652;2023-11-21T04:34:28;107.90;;;69.23;;
81229;SDS011;70701;44.452;18.652;2023-11-21T04:36:56;116.20;;;72.07;;
81229;SDS011;70701;44.452;18.652;2023-11-21T04:39:22;118.80;;;77.63;;
81229;SDS011;70701;44.452;18.652;2023-11-21T04:41:48;125.73;;;78.20;;
81229;SDS011;70701;44.452;18.652;2023-11-21T04:44:13;122.80;;;81.03;;
81229;SDS011;70701;44.452;18.652;2023-11-21T04:46:39;97.43;;;63.43;;
81229;SDS011;70701;44.452;18.652;2023-11-21T04:49:04;89.70;;;56.00;;
81229;SDS011;70701;44.452;18.652;2023-11-21T04:51:30;90.00;;;58.57;;
81229;SDS011;70701;44.452;18.652;2023-11-21T04:53:57;96.47;;;59.97;;
81229;SDS011;70701;44.452;18.652;2023-11-21T04:56:23;87.93;;;58.73;;
81229;SDS011;70701;44.452;18.652;2023-11-21T04:58:49;90.73;;;59.73;;
81229;SDS011;70701;44.452;18.652;2023-11-21T05:01:15;88.47;;;57.73;;
81229;SDS011;70701;44.452;18.652;2023-11-21T05:03:41;92.77;;;59.20;;
81229;SDS011;70701;44.452;18.652;2023-11-21T05:06:09;88.07;;;58.17;;
81229;SDS011;70701;44.452;18.652;2023-11-21T05:08:35;93.97;;;59.27;;
81229;SDS011;70701;44.452;18.652;2023-11-21T05:11:02;94.90;;;61.00;;
81229;SDS011;70701;44.452;18.652;2023-11-21T05:13:28;97.63;;;61.93;;
81229;SDS011;70701;44.452;18.652;2023-11-21T05:15:54;93.00;;;61.00;;
81229;SDS011;70701;44.452;18.652;2023-11-21T05:18:23;94.23;;;61.87;;
81229;SDS011;70701;44.452;18.652;2023-11-21T05:20:52;106.73;;;67.13;;
81229;SDS011;70701;44.452;18.652;2023-11-21T05:23:18;110.30;;;73.10;;
81229;SDS011;70701;44.452;18.652;2023-11-21T05:25:44;139.30;;;88.23;;
81229;SDS011;70701;44.452;18.652;2023-11-21T05:28:11;165.43;;;105.43;;
81229;SDS011;70701;44.452;18.652;2023-11-21T05:30:37;164.90;;;104.80;;
81229;SDS011;70701;44.452;18.652;2023-11-21T05:33:04;193.53;;;125.80;;
81229;SDS011;70701;44.452;18.652;2023-11-21T05:35:30;170.30;;;108.73;;
81229;SDS011;70701;44.452;18.652;2023-11-21T05:37:56;160.30;;;98.20;;
81229;SDS011;70701;44.452;18.652;2023-11-21T05:40:22;164.33;;;103.43;;
81229;SDS011;70701;44.452;18.652;2023-11-21T05:42:47;159.30;;;104.97;;
81229;SDS011;70701;44.452;18.652;2023-11-21T05:45:14;168.93;;;104.83;;
81229;SDS011;70701;44.452;18.652;2023-11-21T05:47:44;156.33;;;98.43;;
81229;SDS011;70701;44.452;18.652;2023-11-21T05:50:11;172.90;;;103.80;;
81229;SDS011;70701;44.452;18.652;2023-11-21T05:52:42;163.17;;;97.23;;
81229;SDS011;70701;44.452;18.652;2023-11-21T05:55:11;130.60;;;84.50;;
81229;SDS011;70701;44.452;18.652;2023-11-21T05:57:38;144.40;;;92.30;;
81229;SDS011;70701;44.452;18.652;2023-11-21T06:00:05;155.17;;;99.10;;
81229;SDS011;70701;44.452;18.652;2023-11-21T06:02:51;131.60;;;86.00;;
81229;SDS011;70701;44.452;18.652;2023-11-21T06:05:24;139.52;;;95.00;;
81229;SDS011;70701;44.452;18.652;2023-11-21T06:07:51;156.90;;;94.67;;
81229;SDS011;70701;44.452;18.652;2023-11-21T06:10:19;155.00;;;94.27;;
81229;SDS011;70701;44.452;18.652;2023-11-21T06:12:45;155.27;;;94.57;;
81229;SDS011;70701;44.452;18.652;2023-11-21T06:15:11;151.70;;;98.63;;
81229;SDS011;70701;44.452;18.652;2023-11-21T06:17:41;164.10;;;104.37;;
81229;SDS011;70701;44.452;18.652;2023-11-21T06:20:08;172.37;;;108.53;;
81229;SDS011;70701;44.452;18.652;2023-11-21T06:22:36;179.73;;;110.60;;
81229;SDS011;70701;44.452;18.652;2023-11-21T06:25:01;171.37;;;109.43;;
81229;SDS011;70701;44.452;18.652;2023-11-21T06:27:28;166.57;;;104.43;;
81229;SDS011;70701;44.452;18.652;2023-11-21T06:29:54;170.73;;;108.03;;
81229;SDS011;70701;44.452;18.652;2023-11-21T06:32:20;172.60;;;106.50;;
81229;SDS011;70701;44.452;18.652;2023-11-21T06:34:47;170.10;;;110.50;;
81229;SDS011;70701;44.452;18.652;2023-11-21T06:37:14;165.63;;;102.67;;
81229;SDS011;70701;44.452;18.652;2023-11-21T06:39:42;192.87;;;112.80;;
81229;SDS011;70701;44.452;18.652;2023-11-21T06:42:07;182.87;;;109.77;;
81229;SDS011;70701;44.452;18.652;2023-11-21T06:44:33;176.70;;;105.57;;
81229;SDS011;70701;44.452;18.652;2023-11-21T06:47:00;150.37;;;98.37;;
81229;SDS011;70701;44.452;18.652;2023-11-21T06:49:26;135.70;;;84.30;;
81229;SDS011;70701;44.452;18.652;2023-11-21T06:51:51;129.40;;;84.53;;
81229;SDS011;70701;44.452;18.652;2023-11-21T06:54:18;133.10;;;83.23;;
81229;SDS011;70701;44.452;18.652;2023-11-21T06:56:44;127.33;;;81.33;;
81229;SDS011;70701;44.452;18.652;2023-11-21T06:59:09;128.07;;;80.17;;
81229;SDS011;70701;44.452;18.652;2023-11-21T07:01:36;128.23;;;79.70;;
81229;SDS011;70701;44.452;18.652;2023-11-21T07:04:04;129.67;;;83.80;;
81229;SDS011;70701;44.452;18.652;2023-11-21T07:06:31;140.93;;;86.47;;
81229;SDS011;70701;44.452;18.652;2023-11-21T07:08:57;153.50;;;94.37;;
81229;SDS011;70701;44.452;18.652;2023-11-21T07:11:23;209.87;;;118.17;;
81229;SDS011;70701;44.452;18.652;2023-11-21T07:13:50;246.73;;;132.20;;
81229;SDS011;70701;44.452;18.652;2023-11-21T07:16:16;276.77;;;144.27;;
81229;SDS011;70701;44.452;18.652;2023-11-21T07:18:41;261.23;;;148.83;;
81229;SDS011;70701;44.452;18.652;2023-11-21T07:21:08;237.30;;;139.73;;
81229;SDS011;70701;44.452;18.652;2023-11-21T07:23:33;211.57;;;125.40;;
81229;SDS011;70701;44.452;18.652;2023-11-21T07:25:59;255.63;;;145.77;;
81229;SDS011;70701;44.452;18.652;2023-11-21T07:28:25;244.20;;;142.77;;
81229;SDS011;70701;44.452;18.652;2023-11-21T07:30:51;249.87;;;142.90;;
81229;SDS011;70701;44.452;18.652;2023-11-21T07:33:17;212.47;;;127.70;;
81229;SDS011;70701;44.452;18.652;2023-11-21T07:35:43;206.10;;;124.70;;
81229;SDS011;70701;44.452;18.652;2023-11-21T07:38:09;187.67;;;118.97;;
81229;SDS011;70701;44.452;18.652;2023-11-21T07:40:36;193.77;;;122.30;;
81229;SDS011;70701;44.452;18.652;2023-11-21T07:43:01;174.10;;;111.57;;
81229;SDS011;70701;44.452;18.652;2023-11-21T07:45:27;194.07;;;124.23;;
81229;SDS011;70701;44.452;18.652;2023-11-21T07:47:53;203.67;;;130.13;;
81229;SDS011;70701;44.452;18.652;2023-11-21T07:50:21;195.87;;;124.07;;
81229;SDS011;70701;44.452;18.652;2023-11-21T07:52:48;189.90;;;122.40;;
81229;SDS011;70701;44.452;18.652;2023-11-21T07:55:15;180.07;;;120.33;;
81229;SDS011;70701;44.452;18.652;2023-11-21T07:57:40;171.67;;;111.63;;
81229;SDS011;70701;44.452;18.652;2023-11-21T08:00:06;173.00;;;114.23;;
81229;SDS011;70701;44.452;18.652;2023-11-21T08:02:40;158.27;;;104.13;;
81229;SDS011;70701;44.452;18.652;2023-11-21T08:05:11;180.30;;;116.27;;
81229;SDS011;70701;44.452;18.652;2023-11-21T08:07:37;211.13;;;139.57;;
81229;SDS011;70701;44.452;18.652;2023-11-21T08:10:03;221.70;;;135.40;;
81229;SDS011;70701;44.452;18.652;2023-11-21T08:12:30;216.03;;;138.10;;
81229;SDS011;70701;44.452;18.652;2023-11-21T08:14:56;196.57;;;125.13;;
81229;SDS011;70701;44.452;18.652;2023-11-21T08:17:21;177.60;;;117.03;;
81229;SDS011;70701;44.452;18.652;2023-11-21T08:19:48;174.07;;;115.57;;
81229;SDS011;70701;44.452;18.652;2023-11-21T08:22:15;212.00;;;129.13;;
81229;SDS011;70701;44.452;18.652;2023-11-21T08:24:43;178.83;;;120.73;;
81229;SDS011;70701;44.452;18.652;2023-11-21T08:27:09;171.60;;;112.63;;
81229;SDS011;70701;44.452;18.652;2023-11-21T08:29:35;175.00;;;115.97;;
81229;SDS011;70701;44.452;18.652;2023-11-21T08:32:04;193.53;;;120.80;;
81229;SDS011;70701;44.452;18.652;2023-11-21T08:34:30;179.40;;;114.87;;
81229;SDS011;70701;44.452;18.652;2023-11-21T08:36:56;208.27;;;136.80;;
81229;SDS011;70701;44.452;18.652;2023-11-21T08:39:22;182.17;;;121.93;;
81229;SDS011;70701;44.452;18.652;2023-11-21T08:41:50;178.50;;;114.20;;
81229;SDS011;70701;44.452;18.652;2023-11-21T08:44:16;178.60;;;118.23;;
81229;SDS011;70701;44.452;18.652;2023-11-21T08:46:43;184.43;;;122.23;;
81229;SDS011;70701;44.452;18.652;2023-11-21T08:49:11;156.20;;;101.77;;
81229;SDS011;70701;44.452;18.652;2023-11-21T08:51:37;142.00;;;94.67;;
81229;SDS011;70701;44.452;18.652;2023-11-21T08:54:03;153.67;;;95.47;;
81229;SDS011;70701;44.452;18.652;2023-11-21T08:56:33;152.53;;;99.00;;
81229;SDS011;70701;44.452;18.652;2023-11-21T08:58:59;164.10;;;106.20;;
81229;SDS011;70701;44.452;18.652;2023-11-21T09:01:29;157.47;;;103.93;;
81229;SDS011;70701;44.452;18.652;2023-11-21T09:03:59;145.40;;;98.77;;
81229;SDS011;70701;44.452;18.652;2023-11-21T09:06:25;143.07;;;92.47;;
81229;SDS011;70701;44.452;18.652;2023-11-21T09:08:51;168.00;;;105.57;;
81229;SDS011;70701;44.452;18.652;2023-11-21T09:11:17;210.30;;;128.27;;
81229;SDS011;70701;44.452;18.652;2023-11-21T09:13:42;207.93;;;128.00;;
81229;SDS011;70701;44.452;18.652;2023-11-21T09:16:08;204.90;;;126.23;;
81229;SDS011;70701;44.452;18.652;2023-11-21T09:18:34;215.50;;;131.60;;
81229;SDS011;70701;44.452;18.652;2023-11-21T09:20:59;197.57;;;122.03;;
81229;SDS011;70701;44.452;18.652;2023-11-21T09:23:25;203.83;;;125.53;;
81229;SDS011;70701;44.452;18.652;2023-11-21T09:25:51;224.07;;;133.20;;
81229;SDS011;70701;44.452;18.652;2023-11-21T09:28:17;225.43;;;132.30;;
81229;SDS011;70701;44.452;18.652;2023-11-21T09:30:43;244.83;;;131.73;;
81229;SDS011;70701;44.452;18.652;2023-11-21T09:33:09;250.77;;;134.77;;
81229;SDS011;70701;44.452;18.652;2023-11-21T09:35:38;234.97;;;132.20;;
81229;SDS011;70701;44.452;18.652;2023-11-21T09:38:04;243.17;;;131.67;;
81229;SDS011;70701;44.452;18.652;2023-11-21T09:40:36;242.10;;;133.43;;
81229;SDS011;70701;44.452;18.652;2023-11-21T09:43:06;219.70;;;121.13;;
81229;SDS011;70701;44.452;18.652;2023-11-21T09:45:41;231.90;;;124.37;;
81229;SDS011;70701;44.452;18.652;2023-11-21T09:48:11;216.50;;;120.43;;
81229;SDS011;70701;44.452;18.652;2023-11-21T09:50:38;193.57;;;108.77;;
81229;SDS011;70701;44.452;18.652;2023-11-21T09:55:42;194.15;;;109.05;;
81229;SDS011;70701;44.452;18.652;2023-11-21T09:58:09;207.03;;;112.33;;
81229;SDS011;70701;44.452;18.652;2023-11-21T10:00:40;180.20;;;99.40;;
81229;SDS011;70701;44.452;18.652;2023-11-21T10:03:09;177.73;;;99.77;;
81229;SDS011;70701;44.452;18.652;2023-11-21T10:05:38;174.57;;;101.57;;
81229;SDS011;70701;44.452;18.652;2023-11-21T10:08:06;192.90;;;103.73;;
81229;SDS011;70701;44.452;18.652;2023-11-21T10:10:33;186.27;;;105.57;;
81229;SDS011;70701;44.452;18.652;2023-11-21T10:13:01;190.77;;;104.03;;
81229;SDS011;70701;44.452;18.652;2023-11-21T10:15:35;196.20;;;105.40;;
81229;SDS011;70701;44.452;18.652;2023-11-21T10:18:04;177.30;;;102.30;;
81229;SDS011;70701;44.452;18.652;2023-11-21T10:20:32;183.27;;;97.00;;
81229;SDS011;70701;44.452;18.652;2023-11-21T10:22:59;183.50;;;99.00;;
81229;SDS011;70701;44.452;18.652;2023-11-21T10:25:28;161.67;;;92.33;;
81229;SDS011;70701;44.452;18.652;2023-11-21T10:27:58;155.80;;;88.07;;
81229;SDS011;70701;44.452;18.652;2023-11-21T10:30:32;170.87;;;93.57;;
81229;SDS011;70701;44.452;18.652;2023-11-21T10:32:59;170.73;;;95.53;;
81229;SDS011;70701;44.452;18.652;2023-11-21T10:35:38;156.73;;;88.37;;
81229;SDS011;70701;44.452;18.652;2023-11-21T10:38:06;162.10;;;97.70;;
81229;SDS011;70701;44.452;18.652;2023-11-21T10:40:37;138.27;;;76.57;;
81229;SDS011;70701;44.452;18.652;2023-11-21T10:43:10;154.03;;;84.17;;
81229;SDS011;70701;44.452;18.652;2023-11-21T10:45:42;117.50;;;70.77;;
81229;SDS011;70701;44.452;18.652;2023-11-21T10:48:09;121.83;;;73.43;;
81229;SDS011;70701;44.452;18.652;2023-11-21T10:50:36;137.20;;;77.63;;
81229;SDS011;70701;44.452;18.652;2023-11-21T10:53:03;143.10;;;76.90;;
81229;SDS011;70701;44.452;18.652;2023-11-21T10:55:29;154.50;;;77.03;;
81229;SDS011;70701;44.452;18.652;2023-11-21T10:57:58;136.80;;;70.03;;
81229;SDS011;70701;44.452;18.652;2023-11-21T11:00:25;145.90;;;61.83;;
81229;SDS011;70701;44.452;18.652;2023-11-21T11:02:52;156.17;;;65.90;;
81229;SDS011;70701;44.452;18.652;2023-11-21T11:05:23;164.63;;;73.03;;
81229;SDS011;70701;44.452;18.652;2023-11-21T11:07:51;142.33;;;69.10;;
81229;SDS011;70701;44.452;18.652;2023-11-21T11:10:25;123.60;;;58.40;;
81229;SDS011;70701;44.452;18.652;2023-11-21T11:12:53;106.57;;;53.03;;
81229;SDS011;70701;44.452;18.652;2023-11-21T11:15:20;86.33;;;46.47;;
81229;SDS011;70701;44.452;18.652;2023-11-21T11:17:47;74.73;;;44.90;;
81229;SDS011;70701;44.452;18.652;2023-11-21T11:20:14;59.60;;;40.10;;
81229;SDS011;70701;44.452;18.652;2023-11-21T11:28:16;46.67;;;32.43;;
81229;SDS011;70701;44.452;18.652;2023-11-21T11:35:57;51.90;;;35.57;;
81229;SDS011;70701;44.452;18.652;2023-11-21T11:38:26;55.07;;;37.03;;
81229;SDS011;70701;44.452;18.652;2023-11-21T11:41:04;53.67;;;36.93;;
81229;SDS011;70701;44.452;18.652;2023-11-21T11:43:31;59.83;;;37.57;;
81229;SDS011;70701;44.452;18.652;2023-11-21T11:46:10;56.90;;;38.87;;
81229;SDS011;70701;44.452;18.652;2023-11-21T11:48:38;54.27;;;36.83;;
81229;SDS011;70701;44.452;18.652;2023-11-21T11:51:11;50.17;;;33.83;;
81229;SDS011;70701;44.452;18.652;2023-11-21T11:53:49;47.03;;;33.57;;
81229;SDS011;70701;44.452;18.652;2023-11-21T11:58:46;43.83;;;30.73;;
81229;SDS011;70701;44.452;18.652;2023-11-21T12:01:13;47.30;;;34.07;;
81229;SDS011;70701;44.452;18.652;2023-11-21T12:03:38;44.13;;;30.20;;
81229;SDS011;70701;44.452;18.652;2023-11-21T12:06:06;46.23;;;32.83;;
81229;SDS011;70701;44.452;18.652;2023-11-21T12:08:34;36.67;;;27.07;;
81229;SDS011;70701;44.452;18.652;2023-11-21T12:11:01;37.83;;;27.17;;
81229;SDS011;70701;44.452;18.652;2023-11-21T12:13:28;35.40;;;25.80;;
81229;SDS011;70701;44.452;18.652;2023-11-21T12:15:54;33.23;;;24.80;;
81229;SDS011;70701;44.452;18.652;2023-11-21T12:18:20;34.73;;;26.97;;
81229;SDS011;70701;44.452;18.652;2023-11-21T12:20:46;31.63;;;24.10;;
81229;SDS011;70701;44.452;18.652;2023-11-21T12:23:15;36.47;;;24.93;;
81229;SDS011;70701;44.452;18.652;2023-11-21T12:25:42;32.10;;;23.40;;
81229;SDS011;70701;44.452;18.652;2023-11-21T12:28:08;31.00;;;23.47;;
81229;SDS011;70701;44.452;18.652;2023-11-21T12:30:34;31.83;;;23.67;;
81229;SDS011;70701;44.452;18.652;2023-11-21T12:33:03;31.67;;;23.27;;
81229;SDS011;70701;44.452;18.652;2023-11-21T12:35:30;39.30;;;26.87;;
81229;SDS011;70701;44.452;18.652;2023-11-21T12:38:00;54.57;;;32.07;;
81229;SDS011;70701;44.452;18.652;2023-11-21T12:40:30;46.27;;;28.83;;
81229;SDS011;70701;44.452;18.652;2023-11-21T12:42:57;37.97;;;24.60;;
81229;SDS011;70701;44.452;18.652;2023-11-21T12:45:25;33.93;;;24.67;;
81229;SDS011;70701;44.452;18.652;2023-11-21T12:50:34;28.80;;;22.57;;
81229;SDS011;70701;44.452;18.652;2023-11-21T12:53:11;32.80;;;24.03;;
81229;SDS011;70701;44.452;18.652;2023-11-21T12:55:38;31.60;;;22.93;;
81229;SDS011;70701;44.452;18.652;2023-11-21T12:58:07;37.53;;;24.90;;
81229;SDS011;70701;44.452;18.652;2023-11-21T13:00:35;29.80;;;22.33;;
81229;SDS011;70701;44.452;18.652;2023-11-21T13:03:04;34.17;;;23.70;;
81229;SDS011;70701;44.452;18.652;2023-11-21T13:05:32;30.87;;;21.50;;
81229;SDS011;70701;44.452;18.652;2023-11-21T13:08:03;26.27;;;17.60;;
81229;SDS011;70701;44.452;18.652;2023-11-21T13:10:29;30.70;;;22.60;;
81229;SDS011;70701;44.452;18.652;2023-11-21T13:13:00;26.03;;;19.53;;
81229;SDS011;70701;44.452;18.652;2023-11-21T13:15:27;30.07;;;22.97;;
81229;SDS011;70701;44.452;18.652;2023-11-21T13:17:53;24.43;;;18.40;;
81229;SDS011;70701;44.452;18.652;2023-11-21T13:20:21;26.83;;;20.37;;
81229;SDS011;70701;44.452;18.652;2023-11-21T13:22:53;36.40;;;24.27;;
81229;SDS011;70701;44.452;18.652;2023-11-21T13:25:25;29.30;;;21.17;;
81229;SDS011;70701;44.452;18.652;2023-11-21T13:27:53;35.60;;;23.57;;
81229;SDS011;70701;44.452;18.652;2023-11-21T13:30:23;35.87;;;25.67;;
81229;SDS011;70701;44.452;18.652;2023-11-21T13:32:56;38.80;;;27.27;;
81229;SDS011;70701;44.452;18.652;2023-11-21T13:35:42;44.13;;;29.20;;
81229;SDS011;70701;44.452;18.652;2023-11-21T13:38:12;45.87;;;27.83;;
81229;SDS011;70701;44.452;18.652;2023-11-21T13:40:49;42.73;;;29.97;;
81229;SDS011;70701;44.452;18.652;2023-11-21T13:43:19;48.67;;;31.57;;
81229;SDS011;70701;44.452;18.652;2023-11-21T13:45:49;46.73;;;27.77;;
81229;SDS011;70701;44.452;18.652;2023-11-21T13:48:23;50.30;;;30.17;;
81229;SDS011;70701;44.452;18.652;2023-11-21T13:51:11;47.83;;;29.20;;
81229;SDS011;70701;44.452;18.652;2023-11-21T13:53:45;50.77;;;32.13;;
81229;SDS011;70701;44.452;18.652;2023-11-21T13:56:20;54.43;;;30.50;;
81229;SDS011;70701;44.452;18.652;2023-11-21T13:58:52;51.47;;;33.37;;
81229;SDS011;70701;44.452;18.652;2023-11-21T14:01:19;51.67;;;33.83;;
81229;SDS011;70701;44.452;18.652;2023-11-21T14:03:55;50.93;;;34.93;;
81229;SDS011;70701;44.452;18.652;2023-11-21T14:06:38;52.83;;;34.35;;
81229;SDS011;70701;44.452;18.652;2023-11-21T14:09:19;53.27;;;33.67;;
81229;SDS011;70701;44.452;18.652;2023-11-21T14:12:00;61.90;;;36.33;;
81229;SDS011;70701;44.452;18.652;2023-11-21T14:14:30;51.27;;;31.60;;
81229;SDS011;70701;44.452;18.652;2023-11-21T14:16:56;53.10;;;31.93;;
81229;SDS011;70701;44.452;18.652;2023-11-21T14:19:24;41.20;;;29.23;;
81229;SDS011;70701;44.452;18.652;2023-11-21T14:21:55;38.43;;;27.43;;